Time;durP1;ratioP1;P1;durP2;ratioP2;P2;SDS_P1;SDS_P2;PMS_P1;PMS_P2;Temp;Humidity;BMP_temperature;BMP_pressure;BME280_temperature;BME280_humidity;BME280_pressure;Samples;Min_cycle;Max_cycle;Signal;HPM_P1;HPM_P2
2021/12/21 00:01:24;;;;;;;15.45;8.25;;;;;;;-3.57;73.25;100965.10;3519618;79;20998;-74
2021/12/21 00:06:15;;;;;;;27.07;13.25;;;;;;;-3.52;73.38;100968.89;3515115;79;28168;-74
2021/12/21 00:11:07;;;;;;;19.95;11.03;;;;;;;-3.50;73.44;100962.27;3509239;79;20986;-74
2021/12/21 00:21:05;;;;;;;18.50;8.90;;;;;;;-3.40;73.70;100960.42;3514106;80;20986;-74
2021/12/21 00:25:50;;;;;;;15.87;8.57;;;;;;;-3.35;73.64;100964.20;3566466;79;22107;-73
2021/12/21 00:30:41;;;;;;;16.65;9.98;;;;;;;-3.30;73.69;100966.33;3480675;78;27640;-75
2021/12/21 00:35:33;;;;;;;22.25;9.73;;;;;;;-3.25;74.04;100971.78;3542710;79;21509;-74
2021/12/21 00:40:24;;;;;;;20.27;9.68;;;;;;;-3.20;73.66;100974.29;3527520;78;20960;-74
2021/12/21 00:45:15;;;;;;;23.00;11.25;;;;;;;-3.16;73.62;100958.48;3535360;78;24855;-74
2021/12/21 00:50:08;;;;;;;19.25;8.98;;;;;;;-3.15;73.58;100973.34;3510582;78;21011;-74
2021/12/21 00:54:59;;;;;;;17.30;8.55;;;;;;;-3.11;73.64;100973.71;3500244;78;20944;-73
2021/12/21 00:59:50;;;;;;;20.48;8.65;;;;;;;-3.09;73.56;100989.97;3478913;80;20960;-74
2021/12/21 01:04:46;;;;;;;19.30;9.35;;;;;;;-3.05;73.50;100989.81;3530689;79;21690;-75
2021/12/21 01:20:06;;;;;;;17.77;8.58;;;;;;;-2.94;73.41;100981.72;3501518;79;21185;-74
2021/12/21 01:30:04;;;;;;;18.67;9.85;;;;;;;-2.89;73.09;100996.95;3513562;79;22772;-74
2021/12/21 01:40:11;;;;;;;10.23;5.78;;;;;;;-2.83;73.03;100987.22;3466329;79;21437;-74
2021/12/21 01:49:50;;;;;;;8.55;5.55;;;;;;;-2.85;72.37;100981.53;3484171;79;20956;-74
2021/12/21 01:54:39;;;;;;;12.78;5.92;;;;;;;-2.86;72.46;100985.74;3495491;79;21620;-75
2021/12/21 01:59:32;;;;;;;10.75;5.42;;;;;;;-2.87;72.40;100994.13;3502557;79;20936;-74
2021/12/21 02:04:23;;;;;;;12.63;7.08;;;;;;;-2.87;72.33;100996.67;3440925;79;21553;-74
2021/12/21 02:09:17;;;;;;;8.48;4.35;;;;;;;-2.85;72.52;100996.41;3486330;79;27821;-74
2021/12/21 02:14:10;;;;;;;12.98;6.53;;;;;;;-2.85;72.38;100986.22;3457815;79;20936;-74
2021/12/21 02:19:18;;;;;;;8.35;4.95;;;;;;;-2.88;72.33;100979.63;3526453;79;20940;-73
2021/12/21 02:24:07;;;;;;;11.60;4.85;;;;;;;-2.99;72.08;100986.45;3478151;80;20948;-74
2021/12/21 02:29:11;;;;;;;9.33;5.53;;;;;;;-3.12;72.21;100996.09;3507436;79;21114;-73
2021/12/21 02:34:01;;;;;;;;;;;;;;;-3.25;72.33;101002.30;3465993;79;22177;-74
2021/12/21 02:38:52;;;;;;;11.95;5.30;;;;;;;-3.37;72.39;101006.44;3513933;79;20095;-74
2021/12/21 02:43:43;;;;;;;10.25;4.62;;;;;;;-3.51;72.45;101014.25;3473167;79;20853;-74
2021/12/21 02:48:34;;;;;;;12.55;5.55;;;;;;;-3.65;72.52;101009.36;3476698;79;25385;-74
2021/12/21 02:53:25;;;;;;;14.55;5.78;;;;;;;-3.72;72.74;101013.09;3498593;79;20897;-73
2021/12/21 02:58:16;;;;;;;15.90;5.87;;;;;;;-3.81;72.74;101011.47;3530398;78;27113;-73
2021/12/21 03:03:12;;;;;;;12.10;4.87;;;;;;;-3.92;72.62;101015.30;3540905;78;21262;-72
2021/12/21 03:08:09;;;;;;;11.78;5.50;;;;;;;-4.04;72.83;101023.24;3489314;78;20927;-73
2021/12/21 03:17:52;;;;;;;12.88;5.80;;;;;;;-4.21;73.13;101030.37;3470016;79;21002;-73
2021/12/21 03:22:43;;;;;;;14.40;5.70;;;;;;;-4.24;73.23;101032.68;3496500;78;21506;-73
2021/12/21 03:27:34;;;;;;;10.20;5.65;;;;;;;-4.23;73.38;101036.10;3485228;78;20920;-73
2021/12/21 03:32:25;;;;;;;7.20;4.20;;;;;;;-4.23;73.44;101042.05;3561205;78;20997;-73
2021/12/21 03:37:16;;;;;;;6.08;3.85;;;;;;;-4.17;73.38;101045.86;3480692;78;20952;-74
2021/12/21 03:42:09;;;;;;;6.30;3.80;;;;;;;-4.09;73.36;101057.54;3561302;78;26724;-73
2021/12/21 03:47:00;;;;;;;4.65;3.30;;;;;;;-4.01;73.24;101057.76;3524749;78;22026;-73
2021/12/21 03:51:51;;;;;;;7.28;3.70;;;;;;;-3.92;72.88;101066.11;3505580;78;21604;-74
2021/12/21 03:56:43;;;;;;;3.30;2.47;;;;;;;-3.91;72.36;101069.17;3529396;78;20955;-74
2021/12/21 04:01:35;;;;;;;5.72;3.33;;;;;;;-3.93;71.88;101085.07;3507339;78;20908;-73
2021/12/21 04:06:25;;;;;;;3.58;2.30;;;;;;;-3.98;71.69;101097.39;3500943;79;21485;-73
2021/12/21 04:11:17;;;;;;;4.55;2.55;;;;;;;-4.06;70.98;101103.48;3539019;79;21101;-73
2021/12/21 04:16:07;;;;;;;5.17;2.67;;;;;;;-4.12;71.07;101108.08;3490682;79;20944;-74
2021/12/21 04:20:58;;;;;;;4.33;2.92;;;;;;;-4.23;70.45;101114.42;3464648;78;20954;-74
2021/12/21 04:25:50;;;;;;;2.67;1.72;;;;;;;-4.34;70.34;101128.28;3522355;78;21421;-73
2021/12/21 04:30:41;;;;;;;2.52;1.87;;;;;;;-4.49;69.84;101144.38;3489235;78;20945;-73
2021/12/21 04:35:32;;;;;;;3.52;2.15;;;;;;;-4.62;69.69;101142.07;3503145;78;21251;-73
2021/12/21 04:40:38;;;;;;;2.72;1.70;;;;;;;-4.69;69.88;101156.27;3462320;78;21662;-74
2021/12/21 04:45:18;;;;;;;2.77;2.27;;;;;;;-4.78;69.39;101164.38;3485288;78;20952;-73
2021/12/21 04:50:10;;;;;;;3.27;2.25;;;;;;;-4.87;69.33;101161.94;3495485;78;20987;-74
2021/12/21 04:55:04;;;;;;;4.08;2.50;;;;;;;-4.93;69.38;101161.42;3582779;78;20896;-73
2021/12/21 04:59:55;;;;;;;4.17;2.98;;;;;;;-4.96;69.34;101172.95;3491397;79;20948;-73
2021/12/21 05:04:46;;;;;;;3.42;2.25;;;;;;;-4.95;69.55;101182.32;3551753;78;20991;-74
2021/12/21 05:09:42;;;;;;;3.33;2.20;;;;;;;-4.95;69.34;101197.54;3535155;78;21593;-73
2021/12/21 05:14:30;;;;;;;3.65;2.47;;;;;;;-5.01;68.88;101195.02;3559269;78;21018;-73
2021/12/21 05:19:21;;;;;;;5.97;3.20;;;;;;;-5.12;68.31;101207.11;3515196;78;20939;-74
2021/12/21 05:24:12;;;;;;;5.87;2.52;;;;;;;-5.23;68.60;101215.44;3560658;78;21060;-73
2021/12/21 05:29:05;;;;;;;3.92;2.98;;;;;;;-5.31;68.47;101231.60;3541545;78;20948;-73
2021/12/21 05:33:56;;;;;;;13.25;5.55;;;;;;;-5.41;68.46;101229.52;3520788;78;20935;-74
2021/12/21 05:38:52;;;;;;;17.48;7.28;;;;;;;-5.49;68.50;101226.70;3456835;78;20939;-74
2021/12/21 05:43:42;;;;;;;28.30;11.45;;;;;;;-5.61;68.61;101234.48;3558685;78;20959;-73
2021/12/21 05:48:33;;;;;;;6.60;3.45;;;;;;;-5.68;68.49;101243.55;3565299;78;27251;-73
2021/12/21 05:53:24;;;;;;;8.70;5.03;;;;;;;-5.79;68.72;101250.17;3535386;78;29568;-73
2021/12/21 05:58:15;;;;;;;6.15;3.52;;;;;;;-5.87;68.77;101257.05;3484437;79;21007;-73
2021/12/21 06:03:07;;;;;;;6.17;3.92;;;;;;;-5.93;68.78;101255.25;3539431;79;21492;-73
2021/12/21 06:07:58;;;;;;;14.95;6.28;;;;;;;-6.02;68.65;101260.39;3573673;79;20903;-73
2021/12/21 06:13:13;;;;;;;8.63;3.37;;;;;;;-6.06;68.54;101269.73;3551865;78;26904;-72
2021/12/21 06:28:09;;;;;;;24.63;8.63;;;;;;;-6.20;69.05;101268.45;3456999;78;20979;-73
2021/12/21 06:33:01;;;;;;;33.80;14.43;;;;;;;-6.20;69.06;101272.25;3510677;78;21179;-73
2021/12/21 06:37:53;;;;;;;24.65;9.63;;;;;;;-6.25;69.22;101269.66;3495638;78;21765;-73
2021/12/21 06:42:46;;;;;;;32.23;12.55;;;;;;;-6.25;69.21;101275.98;3571813;78;20896;-73
2021/12/21 06:52:46;;;;;;;9.28;4.20;;;;;;;-6.24;69.35;101300.91;3476722;79;21068;-73
2021/12/21 06:57:42;;;;;;;8.40;5.35;;;;;;;-6.31;69.25;101304.54;3498279;79;21124;-74
2021/12/21 07:02:30;;;;;;;7.40;3.85;;;;;;;-6.34;69.48;101304.23;3577325;78;21528;-73
2021/12/21 07:07:22;;;;;;;6.92;3.90;;;;;;;-6.37;69.38;101303.95;3505927;78;20908;-73
2021/12/21 07:22:15;;;;;;;11.60;3.85;;;;;;;-6.48;69.69;101308.37;3475178;78;20962;-73
2021/12/21 07:27:07;;;;;;;6.70;3.10;;;;;;;-6.43;69.67;101313.50;3509656;78;21049;-74
2021/12/21 07:31:58;;;;;;;7.47;3.77;;;;;;;-6.43;69.65;101322.36;3495987;79;20934;-73
2021/12/21 07:36:49;;;;;;;9.53;4.62;;;;;;;-6.40;69.72;101322.28;3544253;78;20898;-73
2021/12/21 07:41:41;;;;;;;9.25;4.53;;;;;;;-6.39;69.64;101329.10;3499815;78;20986;-72
2021/12/21 07:46:33;;;;;;;15.25;6.47;;;;;;;-6.37;69.72;101326.34;3461681;79;21013;-73
2021/12/21 07:51:25;;;;;;;16.23;6.95;;;;;;;-6.32;69.83;101325.52;3544269;79;21654;-73
2021/12/21 07:56:17;;;;;;;21.55;10.30;;;;;;;-6.20;69.88;101324.14;3529121;78;21057;-72
2021/12/21 08:01:09;;;;;;;15.40;8.88;;;;;;;-6.06;69.77;101324.52;3509219;78;21469;-74
2021/12/21 08:06:03;;;;;;;25.68;11.83;;;;;;;-6.01;69.57;101322.04;3509381;78;20957;-74
2021/12/21 08:16:07;;;;;;;23.47;11.35;;;;;;;-5.84;69.46;101340.92;3512402;78;20952;-73
2021/12/21 08:20:59;;;;;;;16.82;7.30;;;;;;;-5.75;69.14;101344.68;3554319;78;20931;-72
2021/12/21 08:25:50;;;;;;;12.33;6.30;;;;;;;-5.70;69.09;101340.94;3500713;79;20935;-73
2021/12/21 08:30:42;;;;;;;9.40;5.28;;;;;;;-5.60;69.07;101338.85;3556758;78;20986;-72
2021/12/21 08:35:33;;;;;;;6.12;3.33;;;;;;;-5.54;68.88;101330.56;3511626;79;21434;-75
2021/12/21 08:40:24;;;;;;;95.57;31.97;;;;;;;-5.24;68.65;101330.26;3540386;79;21325;-75
2021/12/21 08:45:16;;;;;;;19.23;7.65;;;;;;;-5.18;68.36;101335.89;3508197;79;25797;-76
2021/12/21 08:50:11;;;;;;;7.75;3.83;;;;;;;-5.16;68.10;101336.92;3502781;78;21264;-76
2021/12/21 08:55:06;;;;;;;4.90;2.50;;;;;;;-5.13;67.60;101329.59;3507887;78;20928;-75
2021/12/21 08:59:57;;;;;;;6.58;2.75;;;;;;;-5.10;67.22;101316.28;3530048;78;20948;-76
2021/12/21 09:04:48;;;;;;;4.40;2.55;;;;;;;-4.99;67.53;101313.96;3532258;78;21068;-76
2021/12/21 09:09:39;;;;;;;5.92;2.92;;;;;;;-4.96;66.70;101315.86;3542870;78;20956;-77
2021/12/21 09:14:32;;;;;;;8.87;3.80;;;;;;;-4.90;66.79;101312.97;3552999;78;21409;-78
2021/12/21 09:19:24;;;;;;;9.03;4.08;;;;;;;-4.86;66.31;101309.59;3540775;78;20928;-73
2021/12/21 09:24:14;;;;;;;5.17;2.50;;;;;;;-4.74;66.44;101313.95;3543608;78;20968;-74
2021/12/21 09:29:05;;;;;;;6.10;2.90;;;;;;;-4.68;65.90;101309.03;3499119;79;27002;-74
2021/12/21 09:33:56;;;;;;;5.62;2.25;;;;;;;-4.63;65.57;101306.91;3550845;78;21624;-76
2021/12/21 09:38:47;;;;;;;12.43;3.37;;;;;;;-4.62;64.57;101304.87;3522372;79;20987;-76
2021/12/21 09:43:42;;;;;;;6.25;2.67;;;;;;;-4.61;64.75;101307.55;3443415;78;20948;-74
2021/12/21 09:48:35;;;;;;;7.28;3.30;;;;;;;-4.56;64.93;101296.53;3533760;78;20936;-76
2021/12/21 09:53:27;;;;;;;8.00;2.65;;;;;;;-4.46;64.72;101282.97;3515132;78;21102;-78
2021/12/21 09:58:18;;;;;;;4.95;2.02;;;;;;;-4.38;64.86;101290.88;3523034;78;20944;-74
2021/12/21 10:03:10;;;;;;;9.68;3.72;;;;;;;-4.32;64.26;101289.24;3544003;78;20929;-74
2021/12/21 10:08:07;;;;;;;10.20;3.85;;;;;;;-4.31;63.85;101281.77;3540995;78;21552;-74
2021/12/21 10:13:08;;;;;;;5.60;2.80;;;;;;;-4.19;64.33;101277.20;3579028;78;21393;-77
2021/12/21 10:18:03;;;;;;;10.43;2.60;;;;;;;-4.09;63.88;101270.88;3531945;78;21197;-75
2021/12/21 10:22:54;;;;;;;4.55;2.37;;;;;;;-4.02;64.01;101269.37;3502314;78;20967;-73
2021/12/21 10:27:45;;;;;;;8.53;2.10;;;;;;;-3.90;63.48;101266.59;3545297;78;20970;-72
2021/12/21 10:32:42;;;;;;;8.73;3.40;;;;;;;-2.18;61.36;101260.72;3522168;78;20926;-75
2021/12/21 10:37:39;;;;;;;6.70;3.23;;;;;;;-0.77;60.54;101253.30;3558072;78;20936;-75
2021/12/21 10:42:31;;;;;;;5.92;3.35;;;;;;;-1.57;60.10;101273.02;3497340;78;21126;-74
2021/12/21 10:47:22;;;;;;;6.70;3.45;;;;;;;-2.04;60.34;101279.27;3505710;78;20974;-81
2021/12/21 10:52:14;;;;;;;4.65;3.17;;;;;;;-2.40;60.72;101273.08;3511199;78;21013;-82
2021/12/21 10:57:20;;;;;;;7.10;3.30;;;;;;;-2.61;60.71;101277.77;3482108;78;20972;-78
2021/12/21 11:02:23;;;;;;;6.55;3.47;;;;;;;-2.72;59.48;101271.83;3488486;78;20928;-76
2021/12/21 11:12:15;;;;;;;7.03;3.72;;;;;;;0.59;55.60;101245.91;3484349;78;20952;-75
2021/12/21 11:17:06;;;;;;;7.83;4.22;;;;;;;1.26;56.06;101236.92;3463953;79;21038;-76
2021/12/21 11:21:59;;;;;;;5.55;4.12;;;;;;;2.54;53.91;101228.80;3436744;79;20936;-76
2021/12/21 11:26:50;;;;;;;6.20;4.33;;;;;;;4.06;52.61;101227.19;3537418;78;20971;-77
2021/12/21 11:31:46;;;;;;;5.37;4.10;;;;;;;5.25;51.01;101233.84;3498924;78;27000;-77
2021/12/21 11:41:49;;;;;;;4.67;3.55;;;;;;;5.14;50.34;101235.92;3476744;78;20967;-77
2021/12/21 11:46:58;;;;;;;5.60;4.40;;;;;;;4.63;50.60;101229.14;3486684;78;21508;-77
2021/12/21 11:51:49;;;;;;;8.45;4.50;;;;;;;4.13;50.48;101231.84;3519039;78;20975;-76
2021/12/21 11:56:40;;;;;;;7.28;5.15;;;;;;;2.93;50.56;101236.09;3571463;78;20975;-75
2021/12/21 12:01:31;;;;;;;7.12;4.58;;;;;;;1.70;52.10;101242.65;3577198;78;20935;-75
2021/12/21 12:06:25;;;;;;;8.20;4.45;;;;;;;1.00;52.05;101237.42;3469583;79;21097;-76
2021/12/21 12:11:35;;;;;;;5.62;3.20;;;;;;;0.32;53.15;101249.69;3474827;79;21347;-75
2021/12/21 12:16:23;;;;;;;6.92;4.12;;;;;;;-0.49;53.56;101248.84;3530140;78;21416;-76
2021/12/21 12:21:19;;;;;;;3.50;2.40;;;;;;;-1.10;53.85;101250.48;3518062;79;28422;-75
2021/12/21 12:26:21;;;;;;;4.87;2.80;;;;;;;-1.51;53.80;101255.13;3504544;78;20939;-76
2021/12/21 12:31:30;;;;;;;4.72;2.83;;;;;;;-1.86;54.88;101252.09;3501206;78;21022;-75
2021/12/21 12:36:49;;;;;;;5.03;3.08;;;;;;;-2.11;54.76;101255.32;3522168;78;21023;-74
2021/12/21 12:41:47;;;;;;;5.08;3.00;;;;;;;-2.27;55.28;101256.20;3576017;78;20942;-74
2021/12/21 12:46:38;;;;;;;5.17;3.33;;;;;;;-2.42;56.17;101251.70;3512397;79;21139;-75
2021/12/21 12:51:36;;;;;;;7.30;3.47;;;;;;;-2.53;56.99;101248.72;3514494;78;22274;-74
2021/12/21 12:56:27;;;;;;;7.53;3.15;;;;;;;-2.53;56.99;101248.72;3483180;79;21443;-75
2021/12/21 13:01:27;;;;;;;5.53;3.50;;;;;;;-2.61;57.40;101245.58;3514437;78;20971;-76
2021/12/21 13:06:22;;;;;;;7.85;4.45;;;;;;;-2.65;57.69;101245.20;3528204;78;20912;-75
2021/12/21 13:11:21;;;;;;;7.17;4.37;;;;;;;-2.70;57.96;101248.29;3533295;78;21166;-74
2021/12/21 13:16:17;;;;;;;8.45;4.92;;;;;;;-2.76;58.54;101250.34;3521776;78;20955;-74
2021/12/21 13:21:32;;;;;;;7.70;4.62;;;;;;;-2.79;58.92;101241.21;3526633;78;20959;-74
2021/12/21 13:26:35;;;;;;;8.10;4.72;;;;;;;-2.82;59.37;101242.23;3482064;78;20939;-74
2021/12/21 13:31:26;;;;;;;8.55;4.90;;;;;;;-2.85;59.58;101233.47;3527939;78;21449;-74
2021/12/21 13:36:17;;;;;;;12.25;5.22;;;;;;;-2.94;60.00;101232.35;3495885;78;21234;-74
2021/12/21 13:41:13;;;;;;;8.68;5.85;;;;;;;-2.96;60.31;101240.25;3410077;79;20901;-75
2021/12/21 13:46:08;;;;;;;5.70;4.55;;;;;;;-2.98;60.65;101231.61;3460237;79;20924;-75
2021/12/21 13:51:13;;;;;;;10.45;6.00;;;;;;;-3.01;60.96;101241.54;3529275;78;20933;-72
2021/12/21 13:56:04;;;;;;;9.10;5.87;;;;;;;-3.09;61.29;101245.63;3488406;78;21536;-71
2021/12/21 14:00:56;;;;;;;10.25;5.58;;;;;;;-3.15;61.70;101247.70;3494306;78;21076;-74
2021/12/21 14:05:55;;;;;;;11.30;5.95;;;;;;;-3.16;62.10;101244.63;3510949;79;20962;-72
2021/12/21 14:10:50;;;;;;;18.65;6.67;;;;;;;-3.20;62.36;101239.16;3504953;78;20940;-77
2021/12/21 14:15:48;;;;;;;13.13;7.55;;;;;;;-3.23;62.72;101234.73;3450708;78;21469;-76
2021/12/21 14:20:39;;;;;;;15.25;8.43;;;;;;;-3.27;63.09;101235.27;3492864;79;21607;-75
2021/12/21 14:25:30;;;;;;;18.67;9.03;;;;;;;-3.34;63.31;101229.17;3545234;79;22026;-73
2021/12/21 14:30:21;;;;;;;14.95;7.70;;;;;;;-3.38;63.69;101223.31;3480138;79;27224;-73
2021/12/21 14:35:13;;;;;;;16.20;9.15;;;;;;;-3.35;64.19;101227.39;3460907;79;20975;-73
2021/12/21 14:40:05;;;;;;;15.20;8.80;;;;;;;-3.30;64.41;101221.91;3500177;78;20909;-74
2021/12/21 14:44:59;;;;;;;18.30;9.00;;;;;;;-3.20;64.57;101232.45;3511618;78;20944;-74
2021/12/21 14:49:58;;;;;;;17.65;9.93;;;;;;;-3.15;64.84;101230.25;3520513;78;21908;-75
2021/12/21 14:55:12;;;;;;;19.30;11.22;;;;;;;-3.11;65.09;101220.45;3475299;78;21023;-75
2021/12/21 15:00:19;;;;;;;16.10;9.33;;;;;;;-3.07;65.36;101225.02;3505964;78;20905;-75
2021/12/21 15:05:13;;;;;;;;;;;;;;;-3.03;65.49;101217.64;3526372;78;21259;-77
2021/12/21 15:10:07;;;;;;;19.62;10.68;;;;;;;-2.96;65.85;101227.14;3501769;79;20599;-77
2021/12/21 15:15:00;;;;;;;17.05;9.70;;;;;;;-2.99;65.91;101222.19;3507663;79;21033;-76
2021/12/21 15:19:51;;;;;;;16.73;10.68;;;;;;;-2.95;66.31;101222.92;3530665;79;20972;-76
2021/12/21 15:24:42;;;;;;;20.30;11.12;;;;;;;-2.96;66.40;101222.44;3480069;79;22020;-77
2021/12/21 15:29:35;;;;;;;19.67;10.30;;;;;;;-2.94;66.77;101220.91;3475087;79;20873;-77
2021/12/21 15:34:26;;;;;;;20.57;10.72;;;;;;;-2.92;66.91;101214.27;3493618;79;21485;-76
2021/12/21 15:39:20;;;;;;;18.93;10.47;;;;;;;-2.92;67.23;101215.55;3548377;78;23980;-77
2021/12/21 15:44:11;;;;;;;28.27;12.25;;;;;;;-2.89;67.42;101224.70;3477027;78;21363;-76
2021/12/21 15:49:02;;;;;;;21.77;11.68;;;;;;;-2.83;67.66;101228.98;3482759;78;21262;-77
2021/12/21 15:53:53;;;;;;;20.15;10.85;;;;;;;-2.83;67.78;101217.53;3513284;78;20991;-77
2021/12/21 15:58:46;;;;;;;20.30;10.90;;;;;;;-2.80;68.00;101222.00;3470504;78;20990;-76
2021/12/21 16:03:38;;;;;;;21.45;12.30;;;;;;;-2.79;68.39;101218.66;3563868;78;21139;-76
2021/12/21 16:08:29;;;;;;;21.27;11.65;;;;;;;-2.78;68.48;101221.33;3499181;79;21221;-77
2021/12/21 16:13:20;;;;;;;18.17;11.45;;;;;;;-2.77;68.66;101218.03;3509352;79;21002;-76
2021/12/21 16:18:11;;;;;;;22.73;12.05;;;;;;;-2.81;68.76;101221.08;3496751;78;21520;-77
2021/12/21 16:23:03;;;;;;;20.40;11.80;;;;;;;-2.84;68.94;101218.32;3510686;78;21199;-77
2021/12/21 16:27:53;;;;;;;21.57;12.85;;;;;;;-2.85;69.19;101220.74;3482514;78;21861;-77
2021/12/21 16:32:45;;;;;;;20.97;11.73;;;;;;;-2.88;69.45;101216.28;3426428;79;28097;-78
2021/12/21 16:37:38;;;;;;;20.00;12.20;;;;;;;-2.88;69.60;101217.55;3453848;79;20935;-76
2021/12/21 16:42:29;;;;;;;22.50;12.30;;;;;;;-2.92;69.88;101210.06;3497352;79;20900;-77
2021/12/21 16:47:20;;;;;;;21.62;13.05;;;;;;;-2.94;70.13;101208.17;3444205;79;20972;-77
2021/12/21 16:52:12;;;;;;;23.20;11.78;;;;;;;-2.95;70.44;101224.20;3508716;78;27038;-78
2021/12/21 16:57:03;;;;;;;21.10;12.68;;;;;;;-2.95;70.61;101222.92;3457882;79;21027;-76
2021/12/21 17:01:54;;;;;;;24.32;12.78;;;;;;;-2.95;70.74;101225.11;3506575;78;20902;-78
2021/12/21 17:06:45;;;;;;;18.87;12.10;;;;;;;-2.96;70.86;101219.90;3483762;78;24764;-76
2021/12/21 17:11:37;;;;;;;23.75;13.53;;;;;;;-3.08;70.94;101215.98;3562731;78;20931;-76
2021/12/21 17:16:28;;;;;;;29.20;14.07;;;;;;;-3.18;71.21;101227.09;3547410;79;21523;-76
2021/12/21 17:21:19;;;;;;;27.00;15.15;;;;;;;-3.30;71.61;101223.17;3546683;78;20935;-75
2021/12/21 17:26:11;;;;;;;30.12;16.42;;;;;;;-3.36;71.91;101224.33;3513064;78;20918;-76
2021/12/21 17:31:03;;;;;;;23.80;12.98;;;;;;;-3.38;71.98;101223.31;3498083;78;21504;-76
2021/12/21 17:35:58;;;;;;;27.95;15.23;;;;;;;-3.40;72.24;101226.13;3573081;78;20901;-76
2021/12/21 17:40:48;;;;;;;25.10;14.90;;;;;;;-3.42;72.32;101217.09;3517021;78;22225;-76
2021/12/21 17:45:42;;;;;;;29.23;15.55;;;;;;;-3.42;72.53;101223.84;3523439;78;20998;-75
2021/12/21 17:50:33;;;;;;;26.00;14.03;;;;;;;-3.45;72.68;101222.84;3508307;78;20931;-76
2021/12/21 17:55:24;;;;;;;25.65;14.18;;;;;;;-3.41;72.93;101220.55;3442094;79;21187;-75
2021/12/21 18:00:18;;;;;;;27.48;15.75;;;;;;;-3.40;72.88;101228.66;3530260;79;21288;-76
2021/12/21 18:05:09;;;;;;;21.80;12.37;;;;;;;-3.45;73.01;101229.19;3483412;79;22400;-76
2021/12/21 18:10:01;;;;;;;23.07;12.85;;;;;;;-3.47;73.20;101229.45;3481705;79;21004;-76
2021/12/21 18:14:52;;;;;;;29.67;15.30;;;;;;;-3.50;73.38;101224.11;3507687;79;21000;-75
2021/12/21 18:19:43;;;;;;;21.77;13.88;;;;;;;-3.49;73.47;101227.17;3529417;79;25202;-75
2021/12/21 18:24:35;;;;;;;24.87;14.58;;;;;;;-3.50;73.60;101230.86;3488842;78;21580;-75
2021/12/21 18:29:27;;;;;;;23.90;14.13;;;;;;;-3.57;73.67;101230.73;3511927;78;21023;-75
2021/12/21 18:34:18;;;;;;;28.95;15.30;;;;;;;-3.61;73.91;101225.26;3480769;78;20957;-76
2021/12/21 18:39:14;;;;;;;21.23;10.65;;;;;;;-3.61;74.07;101225.26;3517796;78;20966;-75
2021/12/21 18:44:03;;;;;;;29.63;15.48;;;;;;;-3.55;74.27;101221.97;3485614;78;20939;-76
2021/12/21 18:48:54;;;;;;;28.40;15.15;;;;;;;-3.57;74.17;101220.56;3445897;78;20909;-76
2021/12/21 18:53:46;;;;;;;27.77;15.30;;;;;;;-3.60;74.29;101221.58;3492221;78;27496;-76
2021/12/21 18:58:38;;;;;;;25.62;14.33;;;;;;;-3.65;74.32;101231.39;3541473;78;20909;-75
2021/12/21 19:03:29;;;;;;;23.85;13.90;;;;;;;-3.70;74.46;101230.47;3460095;79;20954;-76
2021/12/21 19:08:23;;;;;;;24.90;13.00;;;;;;;-3.74;74.60;101234.80;3475133;79;21459;-76
2021/12/21 19:13:13;;;;;;;28.07;15.75;;;;;;;-3.76;74.75;101233.80;3471903;79;21473;-76
2021/12/21 19:18:05;;;;;;;23.20;14.10;;;;;;;-3.75;74.90;101239.01;3524409;79;27427;-76
2021/12/21 19:23:00;;;;;;;15.88;7.78;;;;;;;-3.67;75.06;101238.36;3511545;78;20940;-76
2021/12/21 19:27:48;;;;;;;15.95;10.72;;;;;;;-3.58;75.31;101240.37;3451582;78;20945;-76
2021/12/21 19:32:39;;;;;;;21.45;12.13;;;;;;;-3.53;75.14;101237.83;3476779;78;20993;-76
2021/12/21 19:37:30;;;;;;;25.72;12.13;;;;;;;-3.46;75.12;101240.50;3456256;78;26839;-75
2021/12/21 19:42:21;;;;;;;15.58;11.25;;;;;;;-3.43;75.09;101234.77;3539436;78;21418;-75
2021/12/21 19:47:13;;;;;;;22.42;13.65;;;;;;;-3.41;75.17;101242.16;3491545;78;20948;-75
2021/12/21 19:52:07;;;;;;;23.67;11.93;;;;;;;-3.43;75.09;101243.30;3549215;78;20940;-75
2021/12/21 19:56:58;;;;;;;23.42;13.85;;;;;;;-3.48;75.28;101237.83;3501938;78;20973;-76
2021/12/21 20:01:50;;;;;;;23.20;13.18;;;;;;;-3.46;75.38;101246.47;3487972;79;20936;-77
2021/12/21 20:06:42;;;;;;;22.52;12.28;;;;;;;-3.46;75.44;101249.01;3534610;78;22221;-76
2021/12/21 20:11:42;;;;;;;21.12;11.90;;;;;;;-3.41;75.44;101258.69;3473008;79;20937;-76
2021/12/21 20:16:28;;;;;;;19.67;12.75;;;;;;;-3.39;75.39;101259.70;3457968;79;21540;-75
2021/12/21 20:21:19;;;;;;;29.57;13.93;;;;;;;-3.40;75.43;101260.05;3559612;78;20936;-76
2021/12/21 20:26:12;;;;;;;24.52;12.90;;;;;;;-3.38;75.48;101257.28;3469219;78;20953;-76
2021/12/21 20:31:05;;;;;;;18.90;11.60;;;;;;;-3.33;75.57;101257.64;3527750;79;21089;-75
2021/12/21 20:35:56;;;;;;;21.35;11.40;;;;;;;-3.31;75.55;101259.92;3511308;78;21456;-76
2021/12/21 20:40:49;;;;;;;14.07;8.18;;;;;;;-3.29;75.53;101265.66;3497725;78;20972;-76
2021/12/21 20:45:42;;;;;;;17.92;11.15;;;;;;;-3.24;75.69;101258.38;3444396;78;21019;-76
2021/12/21 20:50:33;;;;;;;22.35;11.35;;;;;;;-3.17;75.73;101264.47;3492411;78;20968;-76
2021/12/21 20:55:25;;;;;;;17.90;9.60;;;;;;;-3.11;76.00;101273.87;3467650;79;21937;-76
2021/12/21 21:00:17;;;;;;;16.10;8.88;;;;;;;-3.04;76.22;101283.27;3515927;79;21512;-76
2021/12/21 21:05:08;;;;;;;17.60;9.70;;;;;;;-3.00;76.14;101287.46;3528523;79;20995;-76
2021/12/21 21:09:59;;;;;;;19.70;10.25;;;;;;;-2.96;76.29;101300.05;3497468;79;20998;-76
2021/12/21 21:14:50;;;;;;;17.17;10.88;;;;;;;-2.92;76.33;101286.80;3473131;79;21402;-75
2021/12/21 21:19:41;;;;;;;20.10;12.15;;;;;;;-2.90;76.31;101293.80;3539497;78;21048;-75
2021/12/21 21:24:32;;;;;;;16.67;10.30;;;;;;;-2.86;76.31;101306.39;3494810;78;28807;-75
2021/12/21 21:29:23;;;;;;;21.75;10.35;;;;;;;-2.83;76.33;101301.52;3546975;78;20959;-77
2021/12/21 21:34:15;;;;;;;20.12;11.03;;;;;;;-2.79;76.32;101313.75;3535630;78;37694;-75
2021/12/21 21:39:07;;;;;;;19.73;11.53;;;;;;;-2.79;76.43;101313.75;3552048;78;20982;-75
2021/12/21 21:43:58;;;;;;;16.48;9.98;;;;;;;-2.75;76.53;101313.61;3538432;78;21443;-76
2021/12/21 21:48:50;;;;;;;21.95;10.75;;;;;;;-2.76;76.65;101321.61;3506460;78;20977;-75
2021/12/21 21:53:41;;;;;;;16.07;10.05;;;;;;;-2.77;76.81;101323.66;3510192;79;20924;-75
2021/12/21 21:58:34;;;;;;;16.82;10.58;;;;;;;-2.77;76.90;101324.94;3458268;79;20991;-75
2021/12/21 22:03:25;;;;;;;18.67;10.78;;;;;;;-2.81;76.92;101312.70;3441279;79;21086;-75
2021/12/21 22:08:17;;;;;;;19.42;11.45;;;;;;;-2.86;77.12;101316.57;3474337;79;20992;-75
2021/12/21 22:13:15;;;;;;;17.90;12.23;;;;;;;-2.87;77.07;101308.41;3492775;79;20951;-75
2021/12/21 22:18:01;;;;;;;19.07;10.90;;;;;;;-2.88;77.09;101305.34;3517671;78;20955;-76
2021/12/21 22:22:52;;;;;;;14.83;10.43;;;;;;;-2.89;77.13;101301.05;3474883;78;24914;-76
2021/12/21 22:27:43;;;;;;;21.12;11.68;;;;;;;-2.89;77.24;101306.14;3524650;78;20972;-76
2021/12/21 22:32:34;;;;;;;19.77;10.55;;;;;;;-2.90;77.21;101314.16;3532871;78;26450;-76
2021/12/21 22:37:25;;;;;;;18.42;10.95;;;;;;;-2.91;77.19;101303.46;3474980;78;20948;-76
2021/12/21 22:42:17;;;;;;;18.12;12.45;;;;;;;-2.92;77.25;101300.79;3485877;78;21505;-75
2021/12/21 22:47:08;;;;;;;15.78;10.23;;;;;;;-2.91;77.33;101306.01;3479941;78;20986;-76
2021/12/21 22:51:59;;;;;;;21.17;10.72;;;;;;;-2.87;77.33;101326.23;3472999;78;21003;-76
2021/12/21 22:56:50;;;;;;;16.20;9.68;;;;;;;-2.87;77.32;101323.30;3531915;78;21081;-76
2021/12/21 23:01:41;;;;;;;17.52;10.78;;;;;;;-2.85;77.42;101337.41;3513175;78;28235;-75
2021/12/21 23:06:32;;;;;;;21.23;11.60;;;;;;;-2.84;77.31;101331.94;3454288;78;21090;-76
2021/12/21 23:11:23;;;;;;;15.10;9.45;;;;;;;-2.89;77.28;101341.77;3527428;78;24670;-75
2021/12/21 23:16:16;;;;;;;18.02;10.38;;;;;;;-2.94;77.33;101346.86;3559394;78;21052;-76
2021/12/21 23:21:08;;;;;;;17.55;10.10;;;;;;;-3.02;77.32;101359.33;3540727;78;20979;-76
2021/12/21 23:26:00;;;;;;;20.68;11.68;;;;;;;-3.12;77.34;101356.03;3491308;78;20912;-76
2021/12/21 23:30:51;;;;;;;28.10;14.65;;;;;;;-3.20;77.44;101356.16;3557056;78;20983;-76
2021/12/21 23:35:42;;;;;;;21.37;11.57;;;;;;;-3.28;77.42;101355.55;3533843;78;20958;-75
2021/12/21 23:40:34;;;;;;;20.23;10.48;;;;;;;-3.37;77.47;101365.84;3530635;78;21481;-75